sensor_id;sensor_type;location;lat;lon;timestamp;temperature;humidity
10644;DHT22;5370;50.132;8.626;2023-12-04T00:01:47;0.80;68.80
10644;DHT22;5370;50.132;8.626;2023-12-04T00:04:13;0.80;68.80
10644;DHT22;5370;50.132;8.626;2023-12-04T00:06:40;0.80;68.80
10644;DHT22;5370;50.132;8.626;2023-12-04T00:09:05;0.80;68.80
10644;DHT22;5370;50.132;8.626;2023-12-04T00:11:31;0.70;68.70
10644;DHT22;5370;50.132;8.626;2023-12-04T00:13:58;0.70;68.60
10644;DHT22;5370;50.132;8.626;2023-12-04T00:16:23;0.70;68.50
10644;DHT22;5370;50.132;8.626;2023-12-04T00:18:49;0.70;68.60
10644;DHT22;5370;50.132;8.626;2023-12-04T00:21:14;0.70;68.70
10644;DHT22;5370;50.132;8.626;2023-12-04T00:23:40;0.70;68.80
10644;DHT22;5370;50.132;8.626;2023-12-04T00:26:06;0.70;68.80
10644;DHT22;5370;50.132;8.626;2023-12-04T00:28:31;0.70;68.70
10644;DHT22;5370;50.132;8.626;2023-12-04T00:30:57;0.60;68.60
10644;DHT22;5370;50.132;8.626;2023-12-04T00:33:22;0.60;68.70
10644;DHT22;5370;50.132;8.626;2023-12-04T00:35:48;0.60;68.80
10644;DHT22;5370;50.132;8.626;2023-12-04T00:38:13;0.60;68.80
10644;DHT22;5370;50.132;8.626;2023-12-04T00:40:39;0.60;68.70
10644;DHT22;5370;50.132;8.626;2023-12-04T00:43:04;0.50;68.70
10644;DHT22;5370;50.132;8.626;2023-12-04T00:45:30;0.40;68.60
10644;DHT22;5370;50.132;8.626;2023-12-04T00:47:56;0.40;68.80
10644;DHT22;5370;50.132;8.626;2023-12-04T00:50:21;0.40;68.80
10644;DHT22;5370;50.132;8.626;2023-12-04T00:52:47;0.30;68.70
10644;DHT22;5370;50.132;8.626;2023-12-04T00:55:13;0.20;69.30
10644;DHT22;5370;50.132;8.626;2023-12-04T00:57:38;0.20;68.80
10644;DHT22;5370;50.132;8.626;2023-12-04T01:00:04;0.10;68.70
10644;DHT22;5370;50.132;8.626;2023-12-04T01:02:30;0.10;68.80
10644;DHT22;5370;50.132;8.626;2023-12-04T01:04:56;0.00;68.70
10644;DHT22;5370;50.132;8.626;2023-12-04T01:07:21;-0.10;68.70
10644;DHT22;5370;50.132;8.626;2023-12-04T01:09:46;-0.10;68.80
10644;DHT22;5370;50.132;8.626;2023-12-04T01:12:12;-0.20;68.80
10644;DHT22;5370;50.132;8.626;2023-12-04T01:14:37;-0.20;68.90
10644;DHT22;5370;50.132;8.626;2023-12-04T01:17:06;-0.30;69.00
10644;DHT22;5370;50.132;8.626;2023-12-04T01:19:32;-0.30;69.20
10644;DHT22;5370;50.132;8.626;2023-12-04T01:21:57;-0.40;69.10
10644;DHT22;5370;50.132;8.626;2023-12-04T01:24:23;-0.40;69.30
10644;DHT22;5370;50.132;8.626;2023-12-04T01:26:48;-0.40;69.40
10644;DHT22;5370;50.132;8.626;2023-12-04T01:29:14;-0.50;69.40
10644;DHT22;5370;50.132;8.626;2023-12-04T01:31:39;-0.50;69.60
10644;DHT22;5370;50.132;8.626;2023-12-04T01:34:05;-0.50;69.70
10644;DHT22;5370;50.132;8.626;2023-12-04T01:36:30;-0.60;69.70
10644;DHT22;5370;50.132;8.626;2023-12-04T01:38:56;-0.60;69.80
10644;DHT22;5370;50.132;8.626;2023-12-04T01:41:21;-0.60;70.00
10644;DHT22;5370;50.132;8.626;2023-12-04T01:43:47;-0.60;70.00
10644;DHT22;5370;50.132;8.626;2023-12-04T01:46:16;-0.70;70.00
10644;DHT22;5370;50.132;8.626;2023-12-04T01:48:43;-0.70;70.00
10644;DHT22;5370;50.132;8.626;2023-12-04T01:51:10;-0.70;70.00
10644;DHT22;5370;50.132;8.626;2023-12-04T01:53:38;-0.70;70.00
10644;DHT22;5370;50.132;8.626;2023-12-04T01:56:05;-0.70;70.10
10644;DHT22;5370;50.132;8.626;2023-12-04T01:58:32;-0.70;70.20
10644;DHT22;5370;50.132;8.626;2023-12-04T02:00:58;-0.70;70.20
10644;DHT22;5370;50.132;8.626;2023-12-04T02:03:24;-0.80;70.10
10644;DHT22;5370;50.132;8.626;2023-12-04T02:05:51;-0.80;70.20
10644;DHT22;5370;50.132;8.626;2023-12-04T02:08:18;-0.80;70.20
10644;DHT22;5370;50.132;8.626;2023-12-04T02:10:44;-0.70;70.30
10644;DHT22;5370;50.132;8.626;2023-12-04T02:13:10;-0.80;70.20
10644;DHT22;5370;50.132;8.626;2023-12-04T02:15:36;-0.80;70.20
10644;DHT22;5370;50.132;8.626;2023-12-04T02:18:03;-0.80;70.30
10644;DHT22;5370;50.132;8.626;2023-12-04T02:20:33;-0.80;70.30
10644;DHT22;5370;50.132;8.626;2023-12-04T02:22:59;-0.70;70.40
10644;DHT22;5370;50.132;8.626;2023-12-04T02:25:25;-0.80;70.30
10644;DHT22;5370;50.132;8.626;2023-12-04T02:27:52;-0.80;70.30
10644;DHT22;5370;50.132;8.626;2023-12-04T02:30:22;-0.80;70.30
10644;DHT22;5370;50.132;8.626;2023-12-04T02:32:48;-0.80;70.20
10644;DHT22;5370;50.132;8.626;2023-12-04T02:35:19;-0.80;70.20
10644;DHT22;5370;50.132;8.626;2023-12-04T02:37:46;-0.80;70.20
10644;DHT22;5370;50.132;8.626;2023-12-04T02:40:12;-0.90;70.10
10644;DHT22;5370;50.132;8.626;2023-12-04T02:42:39;-0.90;70.20
10644;DHT22;5370;50.132;8.626;2023-12-04T02:45:05;-0.90;70.10
10644;DHT22;5370;50.132;8.626;2023-12-04T02:47:30;-1.00;70.10
10644;DHT22;5370;50.132;8.626;2023-12-04T02:49:56;-1.00;70.10
10644;DHT22;5370;50.132;8.626;2023-12-04T02:52:21;-1.00;70.10
10644;DHT22;5370;50.132;8.626;2023-12-04T02:54:47;-1.00;70.20
10644;DHT22;5370;50.132;8.626;2023-12-04T02:57:12;-0.80;70.30
10644;DHT22;5370;50.132;8.626;2023-12-04T02:59:38;-0.80;70.30
10644;DHT22;5370;50.132;8.626;2023-12-04T03:02:03;-0.90;70.20
10644;DHT22;5370;50.132;8.626;2023-12-04T03:04:30;-0.90;70.20
10644;DHT22;5370;50.132;8.626;2023-12-04T03:06:55;-0.90;70.20
10644;DHT22;5370;50.132;8.626;2023-12-04T03:09:21;-0.80;70.30
10644;DHT22;5370;50.132;8.626;2023-12-04T03:11:47;-0.80;70.30
10644;DHT22;5370;50.132;8.626;2023-12-04T03:14:12;-0.70;70.30
10644;DHT22;5370;50.132;8.626;2023-12-04T03:16:38;-0.80;70.10
10644;DHT22;5370;50.132;8.626;2023-12-04T03:19:03;-0.80;70.00
10644;DHT22;5370;50.132;8.626;2023-12-04T03:21:29;-0.70;70.10
10644;DHT22;5370;50.132;8.626;2023-12-04T03:23:55;-0.70;69.90
10644;DHT22;5370;50.132;8.626;2023-12-04T03:26:20;-0.80;69.70
10644;DHT22;5370;50.132;8.626;2023-12-04T03:28:46;-0.70;69.90
10644;DHT22;5370;50.132;8.626;2023-12-04T03:31:11;-0.70;69.90
10644;DHT22;5370;50.132;8.626;2023-12-04T03:33:37;-0.70;69.90
10644;DHT22;5370;50.132;8.626;2023-12-04T03:36:03;-0.60;69.90
10644;DHT22;5370;50.132;8.626;2023-12-04T03:38:28;-0.60;69.70
10644;DHT22;5370;50.132;8.626;2023-12-04T03:40:54;-0.60;69.60
10644;DHT22;5370;50.132;8.626;2023-12-04T03:43:19;-0.60;69.40
10644;DHT22;5370;50.132;8.626;2023-12-04T03:45:45;-0.60;69.40
10644;DHT22;5370;50.132;8.626;2023-12-04T03:48:10;-0.70;69.00
10644;DHT22;5370;50.132;8.626;2023-12-04T03:50:36;-0.60;69.20
10644;DHT22;5370;50.132;8.626;2023-12-04T03:53:02;-0.70;69.10
10644;DHT22;5370;50.132;8.626;2023-12-04T03:55:27;-0.70;69.10
10644;DHT22;5370;50.132;8.626;2023-12-04T03:57:54;-0.70;69.10
10644;DHT22;5370;50.132;8.626;2023-12-04T04:00:20;-0.80;69.00
10644;DHT22;5370;50.132;8.626;2023-12-04T04:02:46;-0.80;69.00
10644;DHT22;5370;50.132;8.626;2023-12-04T04:05:11;-0.80;68.90
10644;DHT22;5370;50.132;8.626;2023-12-04T04:07:37;-0.80;68.90
10644;DHT22;5370;50.132;8.626;2023-12-04T04:10:03;-0.80;69.00
10644;DHT22;5370;50.132;8.626;2023-12-04T04:12:32;-0.90;68.90
10644;DHT22;5370;50.132;8.626;2023-12-04T04:14:57;-0.90;68.90
10644;DHT22;5370;50.132;8.626;2023-12-04T04:17:23;-0.90;69.00
10644;DHT22;5370;50.132;8.626;2023-12-04T04:19:51;-0.90;69.00
10644;DHT22;5370;50.132;8.626;2023-12-04T04:22:17;-0.90;69.10
10644;DHT22;5370;50.132;8.626;2023-12-04T04:24:43;-0.90;69.10
10644;DHT22;5370;50.132;8.626;2023-12-04T04:27:08;-0.90;69.10
10644;DHT22;5370;50.132;8.626;2023-12-04T04:29:34;-0.80;69.20
10644;DHT22;5370;50.132;8.626;2023-12-04T04:31:59;-0.80;69.20
10644;DHT22;5370;50.132;8.626;2023-12-04T04:34:25;-0.80;69.20
10644;DHT22;5370;50.132;8.626;2023-12-04T04:36:51;-0.70;69.20
10644;DHT22;5370;50.132;8.626;2023-12-04T04:39:16;-0.70;69.10
10644;DHT22;5370;50.132;8.626;2023-12-04T04:41:42;-0.70;69.10
10644;DHT22;5370;50.132;8.626;2023-12-04T04:44:07;-0.70;69.10
10644;DHT22;5370;50.132;8.626;2023-12-04T04:46:33;-0.60;69.10
10644;DHT22;5370;50.132;8.626;2023-12-04T04:48:58;-0.60;69.00
10644;DHT22;5370;50.132;8.626;2023-12-04T04:51:24;-0.60;68.90
10644;DHT22;5370;50.132;8.626;2023-12-04T04:53:49;-0.60;68.90
10644;DHT22;5370;50.132;8.626;2023-12-04T04:56:16;-0.50;68.90
10644;DHT22;5370;50.132;8.626;2023-12-04T04:58:42;-0.50;68.90
10644;DHT22;5370;50.132;8.626;2023-12-04T05:01:08;-0.50;68.90
10644;DHT22;5370;50.132;8.626;2023-12-04T05:03:33;-0.50;68.70
10644;DHT22;5370;50.132;8.626;2023-12-04T05:05:59;-0.50;68.70
10644;DHT22;5370;50.132;8.626;2023-12-04T05:08:25;-0.50;68.60
10644;DHT22;5370;50.132;8.626;2023-12-04T05:10:50;-0.40;68.70
10644;DHT22;5370;50.132;8.626;2023-12-04T05:13:17;-0.40;68.70
10644;DHT22;5370;50.132;8.626;2023-12-04T05:15:42;-0.40;68.60
10644;DHT22;5370;50.132;8.626;2023-12-04T05:18:08;-0.40;68.50
10644;DHT22;5370;50.132;8.626;2023-12-04T05:20:33;-0.40;68.40
10644;DHT22;5370;50.132;8.626;2023-12-04T05:22:59;-0.50;68.30
10644;DHT22;5370;50.132;8.626;2023-12-04T05:25:24;-0.50;68.30
10644;DHT22;5370;50.132;8.626;2023-12-04T05:27:50;-0.50;68.40
10644;DHT22;5370;50.132;8.626;2023-12-04T05:30:15;-0.50;68.40
10644;DHT22;5370;50.132;8.626;2023-12-04T05:32:41;-0.50;68.40
10644;DHT22;5370;50.132;8.626;2023-12-04T05:35:07;-0.50;68.40
10644;DHT22;5370;50.132;8.626;2023-12-04T05:37:32;-0.50;68.40
10644;DHT22;5370;50.132;8.626;2023-12-04T05:39:58;-0.50;68.40
10644;DHT22;5370;50.132;8.626;2023-12-04T05:42:23;-0.50;68.30
10644;DHT22;5370;50.132;8.626;2023-12-04T05:44:49;-0.50;68.20
10644;DHT22;5370;50.132;8.626;2023-12-04T05:47:14;-0.50;68.20
10644;DHT22;5370;50.132;8.626;2023-12-04T05:49:40;-0.50;68.10
10644;DHT22;5370;50.132;8.626;2023-12-04T05:52:06;-0.60;68.00
10644;DHT22;5370;50.132;8.626;2023-12-04T05:54:32;-0.60;67.90
10644;DHT22;5370;50.132;8.626;2023-12-04T05:56:57;-0.60;67.90
10644;DHT22;5370;50.132;8.626;2023-12-04T05:59:23;-0.60;67.90
10644;DHT22;5370;50.132;8.626;2023-12-04T06:01:49;-0.60;67.90
10644;DHT22;5370;50.132;8.626;2023-12-04T06:04:14;-0.60;67.80
10644;DHT22;5370;50.132;8.626;2023-12-04T06:06:40;-0.70;67.80
10644;DHT22;5370;50.132;8.626;2023-12-04T06:09:06;-0.70;67.80
10644;DHT22;5370;50.132;8.626;2023-12-04T06:11:31;-0.70;67.80
10644;DHT22;5370;50.132;8.626;2023-12-04T06:13:57;-0.70;67.90
10644;DHT22;5370;50.132;8.626;2023-12-04T06:16:23;-0.70;67.90
10644;DHT22;5370;50.132;8.626;2023-12-04T06:18:49;-0.70;67.90
10644;DHT22;5370;50.132;8.626;2023-12-04T06:21:14;-0.70;67.80
10644;DHT22;5370;50.132;8.626;2023-12-04T06:23:40;-0.80;67.80
10644;DHT22;5370;50.132;8.626;2023-12-04T06:26:06;-0.80;67.80
10644;DHT22;5370;50.132;8.626;2023-12-04T06:28:32;-0.80;67.90
10644;DHT22;5370;50.132;8.626;2023-12-04T06:30:58;-0.80;67.90
10644;DHT22;5370;50.132;8.626;2023-12-04T06:33:24;-0.80;67.90
10644;DHT22;5370;50.132;8.626;2023-12-04T06:35:50;-0.80;68.00
10644;DHT22;5370;50.132;8.626;2023-12-04T06:38:16;-0.80;68.10
10644;DHT22;5370;50.132;8.626;2023-12-04T06:40:44;-0.70;68.20
10644;DHT22;5370;50.132;8.626;2023-12-04T06:43:10;-0.70;68.10
10644;DHT22;5370;50.132;8.626;2023-12-04T06:45:36;-0.70;68.20
10644;DHT22;5370;50.132;8.626;2023-12-04T06:48:01;-0.70;68.20
10644;DHT22;5370;50.132;8.626;2023-12-04T06:50:27;-0.60;68.20
10644;DHT22;5370;50.132;8.626;2023-12-04T06:52:53;-0.60;68.20
10644;DHT22;5370;50.132;8.626;2023-12-04T06:55:19;-0.50;68.20
10644;DHT22;5370;50.132;8.626;2023-12-04T06:57:44;-0.50;68.10
10644;DHT22;5370;50.132;8.626;2023-12-04T07:00:10;-0.50;68.00
10644;DHT22;5370;50.132;8.626;2023-12-04T07:02:38;-0.50;67.80
10644;DHT22;5370;50.132;8.626;2023-12-04T07:05:04;-0.40;67.70
10644;DHT22;5370;50.132;8.626;2023-12-04T07:07:29;-0.40;67.60
10644;DHT22;5370;50.132;8.626;2023-12-04T07:09:55;-0.50;67.50
10644;DHT22;5370;50.132;8.626;2023-12-04T07:12:20;-0.50;67.40
10644;DHT22;5370;50.132;8.626;2023-12-04T07:14:47;-0.40;67.40
10644;DHT22;5370;50.132;8.626;2023-12-04T07:17:12;-0.50;67.10
10644;DHT22;5370;50.132;8.626;2023-12-04T07:19:38;-0.50;67.10
10644;DHT22;5370;50.132;8.626;2023-12-04T07:22:03;-0.50;67.00
10644;DHT22;5370;50.132;8.626;2023-12-04T07:24:29;-0.50;66.90
10644;DHT22;5370;50.132;8.626;2023-12-04T07:26:54;-0.50;67.00
10644;DHT22;5370;50.132;8.626;2023-12-04T07:29:20;-0.50;66.90
10644;DHT22;5370;50.132;8.626;2023-12-04T07:31:46;-0.50;66.80
10644;DHT22;5370;50.132;8.626;2023-12-04T07:34:11;-0.50;66.90
10644;DHT22;5370;50.132;8.626;2023-12-04T07:36:37;-0.50;66.80
10644;DHT22;5370;50.132;8.626;2023-12-04T07:39:02;-0.50;66.80
10644;DHT22;5370;50.132;8.626;2023-12-04T07:41:31;-0.40;67.00
10644;DHT22;5370;50.132;8.626;2023-12-04T07:43:57;-0.40;67.10
10644;DHT22;5370;50.132;8.626;2023-12-04T07:46:22;-0.30;67.80
10644;DHT22;5370;50.132;8.626;2023-12-04T07:48:48;-0.30;67.10
10644;DHT22;5370;50.132;8.626;2023-12-04T07:51:13;-0.20;67.10
10644;DHT22;5370;50.132;8.626;2023-12-04T07:53:39;-0.10;66.80
10644;DHT22;5370;50.132;8.626;2023-12-04T07:56:05;-0.10;66.60
10644;DHT22;5370;50.132;8.626;2023-12-04T07:58:31;-0.10;66.70
10644;DHT22;5370;50.132;8.626;2023-12-04T08:00:57;-0.10;66.80
10644;DHT22;5370;50.132;8.626;2023-12-04T08:03:23;0.00;66.80
10644;DHT22;5370;50.132;8.626;2023-12-04T08:05:50;0.00;66.60
10644;DHT22;5370;50.132;8.626;2023-12-04T08:08:16;0.10;66.40
10644;DHT22;5370;50.132;8.626;2023-12-04T08:10:41;0.10;66.50
10644;DHT22;5370;50.132;8.626;2023-12-04T08:13:07;0.20;66.70
10644;DHT22;5370;50.132;8.626;2023-12-04T08:15:32;0.30;66.60
10644;DHT22;5370;50.132;8.626;2023-12-04T08:17:58;0.30;66.40
10644;DHT22;5370;50.132;8.626;2023-12-04T08:20:24;0.40;66.30
10644;DHT22;5370;50.132;8.626;2023-12-04T08:22:49;0.40;66.20
10644;DHT22;5370;50.132;8.626;2023-12-04T08:25:15;0.50;66.10
10644;DHT22;5370;50.132;8.626;2023-12-04T08:27:40;0.60;66.00
10644;DHT22;5370;50.132;8.626;2023-12-04T08:30:06;0.70;65.80
10644;DHT22;5370;50.132;8.626;2023-12-04T08:32:32;0.60;65.50
10644;DHT22;5370;50.132;8.626;2023-12-04T08:34:58;0.60;65.10
10644;DHT22;5370;50.132;8.626;2023-12-04T08:37:23;0.70;65.20
10644;DHT22;5370;50.132;8.626;2023-12-04T08:39:49;0.70;65.50
10644;DHT22;5370;50.132;8.626;2023-12-04T08:42:14;0.80;65.60
10644;DHT22;5370;50.132;8.626;2023-12-04T08:44:40;0.90;65.60
10644;DHT22;5370;50.132;8.626;2023-12-04T08:47:05;1.00;65.10
10644;DHT22;5370;50.132;8.626;2023-12-04T08:49:31;1.00;64.80
10644;DHT22;5370;50.132;8.626;2023-12-04T08:51:57;1.10;64.60
10644;DHT22;5370;50.132;8.626;2023-12-04T08:54:24;1.10;64.00
10644;DHT22;5370;50.132;8.626;2023-12-04T08:56:49;1.10;63.80
10644;DHT22;5370;50.132;8.626;2023-12-04T08:59:15;1.20;63.60
10644;DHT22;5370;50.132;8.626;2023-12-04T09:01:42;1.10;62.50
10644;DHT22;5370;50.132;8.626;2023-12-04T09:04:08;1.10;62.70
10644;DHT22;5370;50.132;8.626;2023-12-04T09:06:34;1.10;62.60
10644;DHT22;5370;50.132;8.626;2023-12-04T09:09:00;1.20;62.50
10644;DHT22;5370;50.132;8.626;2023-12-04T09:11:27;1.20;62.40
10644;DHT22;5370;50.132;8.626;2023-12-04T09:13:52;1.20;61.90
10644;DHT22;5370;50.132;8.626;2023-12-04T09:16:18;1.20;62.20
10644;DHT22;5370;50.132;8.626;2023-12-04T09:18:43;1.20;61.70
10644;DHT22;5370;50.132;8.626;2023-12-04T09:21:09;1.20;61.90
10644;DHT22;5370;50.132;8.626;2023-12-04T09:23:35;1.30;61.80
10644;DHT22;5370;50.132;8.626;2023-12-04T09:26:01;1.40;61.90
10644;DHT22;5370;50.132;8.626;2023-12-04T09:28:26;1.40;61.50
10644;DHT22;5370;50.132;8.626;2023-12-04T09:30:52;1.50;61.50
10644;DHT22;5370;50.132;8.626;2023-12-04T09:33:18;1.60;61.70
10644;DHT22;5370;50.132;8.626;2023-12-04T09:35:44;1.70;61.70
10644;DHT22;5370;50.132;8.626;2023-12-04T09:38:10;1.80;61.40
10644;DHT22;5370;50.132;8.626;2023-12-04T09:40:35;1.80;61.40
10644;DHT22;5370;50.132;8.626;2023-12-04T09:43:01;1.90;61.30
10644;DHT22;5370;50.132;8.626;2023-12-04T09:45:29;1.80;60.90
10644;DHT22;5370;50.132;8.626;2023-12-04T09:47:55;1.80;60.90
10644;DHT22;5370;50.132;8.626;2023-12-04T09:50:21;1.80;60.50
10644;DHT22;5370;50.132;8.626;2023-12-04T09:52:51;1.80;60.40
10644;DHT22;5370;50.132;8.626;2023-12-04T09:55:18;1.80;60.30
10644;DHT22;5370;50.132;8.626;2023-12-04T09:57:45;1.70;60.50
10644;DHT22;5370;50.132;8.626;2023-12-04T10:00:12;1.70;60.50
10644;DHT22;5370;50.132;8.626;2023-12-04T10:02:39;1.70;60.30
10644;DHT22;5370;50.132;8.626;2023-12-04T10:05:06;1.70;60.30
10644;DHT22;5370;50.132;8.626;2023-12-04T10:07:32;1.70;60.20
10644;DHT22;5370;50.132;8.626;2023-12-04T10:09:57;1.70;60.40
10644;DHT22;5370;50.132;8.626;2023-12-04T10:12:23;1.70;60.70
10644;DHT22;5370;50.132;8.626;2023-12-04T10:15:04;1.80;60.70
10644;DHT22;5370;50.132;8.626;2023-12-04T10:17:38;1.80;60.20
10644;DHT22;5370;50.132;8.626;2023-12-04T10:20:08;1.80;60.10
10644;DHT22;5370;50.132;8.626;2023-12-04T10:23:01;1.80;60.00
10644;DHT22;5370;50.132;8.626;2023-12-04T10:25:28;1.80;60.00
10644;DHT22;5370;50.132;8.626;2023-12-04T10:28:07;1.80;60.00
10644;DHT22;5370;50.132;8.626;2023-12-04T10:30:32;1.90;60.00
10644;DHT22;5370;50.132;8.626;2023-12-04T10:33:02;1.90;59.90
10644;DHT22;5370;50.132;8.626;2023-12-04T10:35:29;1.90;59.90
10644;DHT22;5370;50.132;8.626;2023-12-04T10:37:56;2.00;60.00
10644;DHT22;5370;50.132;8.626;2023-12-04T10:40:32;2.00;59.90
10644;DHT22;5370;50.132;8.626;2023-12-04T10:43:22;2.10;59.80
10644;DHT22;5370;50.132;8.626;2023-12-04T10:45:49;2.10;59.70
10644;DHT22;5370;50.132;8.626;2023-12-04T10:48:16;2.10;59.70
10644;DHT22;5370;50.132;8.626;2023-12-04T10:50:44;2.20;59.70
10644;DHT22;5370;50.132;8.626;2023-12-04T10:53:11;2.30;59.70
10644;DHT22;5370;50.132;8.626;2023-12-04T10:55:38;2.40;59.90
10644;DHT22;5370;50.132;8.626;2023-12-04T10:58:09;2.50;59.90
10644;DHT22;5370;50.132;8.626;2023-12-04T11:00:39;2.70;59.80
10644;DHT22;5370;50.132;8.626;2023-12-04T11:03:08;2.80;59.10
10644;DHT22;5370;50.132;8.626;2023-12-04T11:05:37;2.90;59.10
10644;DHT22;5370;50.132;8.626;2023-12-04T11:08:15;3.10;59.10
10644;DHT22;5370;50.132;8.626;2023-12-04T11:11:04;3.30;59.00
10644;DHT22;5370;50.132;8.626;2023-12-04T11:13:35;3.50;58.90
10644;DHT22;5370;50.132;8.626;2023-12-04T11:16:09;3.70;58.60
10644;DHT22;5370;50.132;8.626;2023-12-04T11:18:38;3.70;58.00
10644;DHT22;5370;50.132;8.626;2023-12-04T11:21:10;3.70;57.70
10644;DHT22;5370;50.132;8.626;2023-12-04T11:23:37;3.80;56.90
10644;DHT22;5370;50.132;8.626;2023-12-04T11:26:03;3.80;57.20
10644;DHT22;5370;50.132;8.626;2023-12-04T11:28:31;3.90;57.40
10644;DHT22;5370;50.132;8.626;2023-12-04T11:30:57;4.00;57.30
10644;DHT22;5370;50.132;8.626;2023-12-04T11:33:24;4.00;57.00
10644;DHT22;5370;50.132;8.626;2023-12-04T11:35:50;4.10;56.40
10644;DHT22;5370;50.132;8.626;2023-12-04T11:38:17;4.00;56.20
10644;DHT22;5370;50.132;8.626;2023-12-04T11:40:43;4.00;56.20
10644;DHT22;5370;50.132;8.626;2023-12-04T11:43:28;3.90;55.70
10644;DHT22;5370;50.132;8.626;2023-12-04T11:46:07;3.80;55.50
10644;DHT22;5370;50.132;8.626;2023-12-04T11:48:33;3.60;54.90
10644;DHT22;5370;50.132;8.626;2023-12-04T11:50:59;3.50;55.50
10644;DHT22;5370;50.132;8.626;2023-12-04T11:53:25;3.50;55.70
10644;DHT22;5370;50.132;8.626;2023-12-04T11:55:55;3.40;55.70
10644;DHT22;5370;50.132;8.626;2023-12-04T11:58:22;3.40;55.50
10644;DHT22;5370;50.132;8.626;2023-12-04T12:00:47;3.30;55.90
10644;DHT22;5370;50.132;8.626;2023-12-04T12:03:14;3.30;56.90
10644;DHT22;5370;50.132;8.626;2023-12-04T12:05:40;3.40;56.70
10644;DHT22;5370;50.132;8.626;2023-12-04T12:08:07;3.40;57.10
10644;DHT22;5370;50.132;8.626;2023-12-04T12:10:33;3.20;57.60
10644;DHT22;5370;50.132;8.626;2023-12-04T12:12:59;3.00;58.10
10644;DHT22;5370;50.132;8.626;2023-12-04T12:15:27;2.80;58.80
10644;DHT22;5370;50.132;8.626;2023-12-04T12:17:53;2.70;59.30
10644;DHT22;5370;50.132;8.626;2023-12-04T12:20:19;2.60;59.80
10644;DHT22;5370;50.132;8.626;2023-12-04T12:22:48;2.40;60.10
10644;DHT22;5370;50.132;8.626;2023-12-04T12:25:14;2.50;60.80
10644;DHT22;5370;50.132;8.626;2023-12-04T12:27:40;2.40;61.70
10644;DHT22;5370;50.132;8.626;2023-12-04T12:30:06;2.30;62.50
10644;DHT22;5370;50.132;8.626;2023-12-04T12:32:33;2.10;63.70
10644;DHT22;5370;50.132;8.626;2023-12-04T12:34:59;1.80;64.30
10644;DHT22;5370;50.132;8.626;2023-12-04T12:37:24;1.60;64.90
10644;DHT22;5370;50.132;8.626;2023-12-04T12:39:51;1.50;65.70
10644;DHT22;5370;50.132;8.626;2023-12-04T12:42:27;1.40;66.30
10644;DHT22;5370;50.132;8.626;2023-12-04T12:44:54;1.30;66.70
10644;DHT22;5370;50.132;8.626;2023-12-04T12:47:21;1.20;67.00
10644;DHT22;5370;50.132;8.626;2023-12-04T12:49:47;1.20;67.60
10644;DHT22;5370;50.132;8.626;2023-12-04T12:52:12;1.10;67.70
10644;DHT22;5370;50.132;8.626;2023-12-04T12:54:43;1.10;68.00
10644;DHT22;5370;50.132;8.626;2023-12-04T12:57:10;1.10;68.20
10644;DHT22;5370;50.132;8.626;2023-12-04T12:59:37;1.10;68.30
10644;DHT22;5370;50.132;8.626;2023-12-04T13:02:04;1.20;68.60
10644;DHT22;5370;50.132;8.626;2023-12-04T13:04:43;1.20;68.70
10644;DHT22;5370;50.132;8.626;2023-12-04T13:07:09;1.30;69.00
10644;DHT22;5370;50.132;8.626;2023-12-04T13:09:36;1.20;68.90
10644;DHT22;5370;50.132;8.626;2023-12-04T13:12:02;1.20;69.00
10644;DHT22;5370;50.132;8.626;2023-12-04T13:14:29;1.20;69.20
10644;DHT22;5370;50.132;8.626;2023-12-04T13:16:55;1.20;69.50
10644;DHT22;5370;50.132;8.626;2023-12-04T13:19:22;1.20;69.70
10644;DHT22;5370;50.132;8.626;2023-12-04T13:21:48;1.10;69.90
10644;DHT22;5370;50.132;8.626;2023-12-04T13:24:14;1.10;70.00
10644;DHT22;5370;50.132;8.626;2023-12-04T13:26:39;1.10;70.20
10644;DHT22;5370;50.132;8.626;2023-12-04T13:29:05;1.10;70.60
10644;DHT22;5370;50.132;8.626;2023-12-04T13:31:32;1.00;70.70
10644;DHT22;5370;50.132;8.626;2023-12-04T13:33:58;1.00;70.90
10644;DHT22;5370;50.132;8.626;2023-12-04T13:36:24;1.00;71.10
10644;DHT22;5370;50.132;8.626;2023-12-04T13:38:49;1.00;71.40
10644;DHT22;5370;50.132;8.626;2023-12-04T13:41:15;1.00;71.70
10644;DHT22;5370;50.132;8.626;2023-12-04T13:44:19;1.00;71.90
10644;DHT22;5370;50.132;8.626;2023-12-04T13:46:44;1.00;72.20
10644;DHT22;5370;50.132;8.626;2023-12-04T13:49:12;1.00;72.40
10644;DHT22;5370;50.132;8.626;2023-12-04T13:51:38;1.00;72.50
10644;DHT22;5370;50.132;8.626;2023-12-04T13:54:05;1.00;72.70
10644;DHT22;5370;50.132;8.626;2023-12-04T13:56:45;1.10;72.70
10644;DHT22;5370;50.132;8.626;2023-12-04T13:59:19;1.10;72.70
10644;DHT22;5370;50.132;8.626;2023-12-04T14:01:45;1.10;72.70
10644;DHT22;5370;50.132;8.626;2023-12-04T14:04:11;1.10;72.80
10644;DHT22;5370;50.132;8.626;2023-12-04T14:06:37;1.10;72.90
10644;DHT22;5370;50.132;8.626;2023-12-04T14:09:03;1.20;73.00
10644;DHT22;5370;50.132;8.626;2023-12-04T14:11:38;1.20;73.20
10644;DHT22;5370;50.132;8.626;2023-12-04T14:14:04;1.10;73.40
10644;DHT22;5370;50.132;8.626;2023-12-04T14:16:33;1.10;73.50
10644;DHT22;5370;50.132;8.626;2023-12-04T14:18:58;1.10;73.70
10644;DHT22;5370;50.132;8.626;2023-12-04T14:21:24;1.00;73.90
10644;DHT22;5370;50.132;8.626;2023-12-04T14:23:50;1.10;74.20
10644;DHT22;5370;50.132;8.626;2023-12-04T14:26:15;1.10;75.10
10644;DHT22;5370;50.132;8.626;2023-12-04T14:28:41;1.00;74.50
10644;DHT22;5370;50.132;8.626;2023-12-04T14:31:07;1.10;74.70
10644;DHT22;5370;50.132;8.626;2023-12-04T14:33:33;1.00;74.80
10644;DHT22;5370;50.132;8.626;2023-12-04T14:35:58;1.10;74.90
10644;DHT22;5370;50.132;8.626;2023-12-04T14:38:24;1.00;74.90
10644;DHT22;5370;50.132;8.626;2023-12-04T14:40:50;1.00;75.00
10644;DHT22;5370;50.132;8.626;2023-12-04T14:43:16;1.00;75.20
10644;DHT22;5370;50.132;8.626;2023-12-04T14:45:41;1.00;75.30
10644;DHT22;5370;50.132;8.626;2023-12-04T14:48:07;1.00;75.40
10644;DHT22;5370;50.132;8.626;2023-12-04T14:50:33;1.00;75.70
10644;DHT22;5370;50.132;8.626;2023-12-04T14:53:01;0.90;75.70
10644;DHT22;5370;50.132;8.626;2023-12-04T14:55:40;0.90;75.90
10644;DHT22;5370;50.132;8.626;2023-12-04T14:58:24;0.90;76.10
10644;DHT22;5370;50.132;8.626;2023-12-04T15:01:09;0.80;76.20
10644;DHT22;5370;50.132;8.626;2023-12-04T15:03:53;0.80;76.60
10644;DHT22;5370;50.132;8.626;2023-12-04T15:06:39;0.80;76.70
10644;DHT22;5370;50.132;8.626;2023-12-04T15:09:23;0.90;76.90
10644;DHT22;5370;50.132;8.626;2023-12-04T15:12:00;0.90;77.10
10644;DHT22;5370;50.132;8.626;2023-12-04T15:14:29;0.90;77.20
10644;DHT22;5370;50.132;8.626;2023-12-04T15:17:08;0.90;77.30
10644;DHT22;5370;50.132;8.626;2023-12-04T15:19:54;0.90;77.40
10644;DHT22;5370;50.132;8.626;2023-12-04T15:22:35;0.90;77.70
10644;DHT22;5370;50.132;8.626;2023-12-04T15:25:03;1.00;78.00
10644;DHT22;5370;50.132;8.626;2023-12-04T15:27:29;1.00;78.10
10644;DHT22;5370;50.132;8.626;2023-12-04T15:29:55;1.00;78.20
10644;DHT22;5370;50.132;8.626;2023-12-04T15:32:21;1.10;78.40
10644;DHT22;5370;50.132;8.626;2023-12-04T15:34:46;1.10;78.60
10644;DHT22;5370;50.132;8.626;2023-12-04T15:37:12;1.10;78.80
10644;DHT22;5370;50.132;8.626;2023-12-04T15:39:37;1.10;79.00
10644;DHT22;5370;50.132;8.626;2023-12-04T15:42:03;1.10;79.20
10644;DHT22;5370;50.132;8.626;2023-12-04T15:44:31;1.10;79.20
10644;DHT22;5370;50.132;8.626;2023-12-04T15:46:56;1.10;79.20
10644;DHT22;5370;50.132;8.626;2023-12-04T15:49:22;1.10;79.30
10644;DHT22;5370;50.132;8.626;2023-12-04T15:51:48;1.20;79.70
10644;DHT22;5370;50.132;8.626;2023-12-04T15:54:13;1.10;80.10